sensor_id;sensor_type;location;lat;lon;timestamp;temperature;humidity
12438;DHT22;6283;51.330;12.374;2023-04-01T00:02:18;9.70;1.00
12438;DHT22;6283;51.330;12.374;2023-04-01T00:04:44;9.70;1.00
12438;DHT22;6283;51.330;12.374;2023-04-01T00:07:10;9.70;1.00
12438;DHT22;6283;51.330;12.374;2023-04-01T00:09:36;9.80;1.00
12438;DHT22;6283;51.330;12.374;2023-04-01T00:12:03;9.90;1.00
12438;DHT22;6283;51.330;12.374;2023-04-01T00:14:29;9.80;1.00
12438;DHT22;6283;51.330;12.374;2023-04-01T00:16:55;9.80;1.00
12438;DHT22;6283;51.330;12.374;2023-04-01T00:19:20;9.70;1.00
12438;DHT22;6283;51.330;12.374;2023-04-01T00:21:46;9.90;1.00
12438;DHT22;6283;51.330;12.374;2023-04-01T00:24:12;9.70;1.00
12438;DHT22;6283;51.330;12.374;2023-04-01T00:26:37;9.80;1.00
12438;DHT22;6283;51.330;12.374;2023-04-01T00:29:03;10.00;1.00
12438;DHT22;6283;51.330;12.374;2023-04-01T00:31:29;9.80;1.00
12438;DHT22;6283;51.330;12.374;2023-04-01T00:33:55;9.80;1.00
12438;DHT22;6283;51.330;12.374;2023-04-01T00:36:22;9.90;1.00
12438;DHT22;6283;51.330;12.374;2023-04-01T00:38:49;9.90;1.00
12438;DHT22;6283;51.330;12.374;2023-04-01T00:41:15;9.80;1.00
12438;DHT22;6283;51.330;12.374;2023-04-01T00:43:44;9.90;1.00
12438;DHT22;6283;51.330;12.374;2023-04-01T00:46:10;9.80;1.00
12438;DHT22;6283;51.330;12.374;2023-04-01T00:48:39;9.70;1.00
12438;DHT22;6283;51.330;12.374;2023-04-01T00:53:41;9.90;1.00
12438;DHT22;6283;51.330;12.374;2023-04-01T00:56:21;9.80;1.00
12438;DHT22;6283;51.330;12.374;2023-04-01T00:58:57;10.00;1.00
12438;DHT22;6283;51.330;12.374;2023-04-01T01:01:24;9.80;1.00
12438;DHT22;6283;51.330;12.374;2023-04-01T01:03:50;9.70;1.00
12438;DHT22;6283;51.330;12.374;2023-04-01T01:09:21;10.00;1.00
12438;DHT22;6283;51.330;12.374;2023-04-01T01:12:07;9.80;1.00
12438;DHT22;6283;51.330;12.374;2023-04-01T01:20:48;9.80;1.00
12438;DHT22;6283;51.330;12.374;2023-04-01T01:36:52;9.80;99.90
12438;DHT22;6283;51.330;12.374;2023-04-01T01:39:19;9.80;99.90
12438;DHT22;6283;51.330;12.374;2023-04-01T01:41:47;9.80;99.90
12438;DHT22;6283;51.330;12.374;2023-04-01T01:44:16;9.70;99.90
12438;DHT22;6283;51.330;12.374;2023-04-01T01:46:45;10.00;94.20
12438;DHT22;6283;51.330;12.374;2023-04-01T01:49:12;9.80;43.80
12438;DHT22;6283;51.330;12.374;2023-04-01T01:51:39;9.70;71.60
12438;DHT22;6283;51.330;12.374;2023-04-01T01:54:05;9.90;59.00
12438;DHT22;6283;51.330;12.374;2023-04-01T01:56:32;9.80;12.60
12438;DHT22;6283;51.330;12.374;2023-04-01T01:59:03;10.00;96.20
12438;DHT22;6283;51.330;12.374;2023-04-01T02:01:34;9.80;41.10
12438;DHT22;6283;51.330;12.374;2023-04-01T02:04:02;9.70;1.00
12438;DHT22;6283;51.330;12.374;2023-04-01T02:06:34;9.70;1.00
12438;DHT22;6283;51.330;12.374;2023-04-01T02:09:06;10.00;1.00
12438;DHT22;6283;51.330;12.374;2023-04-01T02:11:43;9.90;1.00
12438;DHT22;6283;51.330;12.374;2023-04-01T02:14:15;9.90;75.80
12438;DHT22;6283;51.330;12.374;2023-04-01T02:17:00;9.90;1.00
12438;DHT22;6283;51.330;12.374;2023-04-01T02:19:29;9.90;22.90
12438;DHT22;6283;51.330;12.374;2023-04-01T02:22:00;10.00;1.00
12438;DHT22;6283;51.330;12.374;2023-04-01T02:24:28;10.10;1.00
12438;DHT22;6283;51.330;12.374;2023-04-01T02:26:55;10.10;1.00
12438;DHT22;6283;51.330;12.374;2023-04-01T02:29:23;10.10;1.00
12438;DHT22;6283;51.330;12.374;2023-04-01T02:31:51;10.00;1.00
12438;DHT22;6283;51.330;12.374;2023-04-01T02:34:17;10.10;99.90
12438;DHT22;6283;51.330;12.374;2023-04-01T02:36:44;10.00;99.90
12438;DHT22;6283;51.330;12.374;2023-04-01T02:39:09;10.10;99.90
12438;DHT22;6283;51.330;12.374;2023-04-01T02:41:42;9.90;99.00
12438;DHT22;6283;51.330;12.374;2023-04-01T02:44:10;9.90;1.00
12438;DHT22;6283;51.330;12.374;2023-04-01T02:46:36;10.00;1.00
12438;DHT22;6283;51.330;12.374;2023-04-01T02:49:03;10.00;1.00
12438;DHT22;6283;51.330;12.374;2023-04-01T02:51:28;9.80;99.90
12438;DHT22;6283;51.330;12.374;2023-04-01T02:53:54;9.80;99.90
12438;DHT22;6283;51.330;12.374;2023-04-01T02:56:20;9.80;99.90
12438;DHT22;6283;51.330;12.374;2023-04-01T02:58:47;9.90;99.90
12438;DHT22;6283;51.330;12.374;2023-04-01T03:01:13;10.10;1.00
12438;DHT22;6283;51.330;12.374;2023-04-01T03:03:38;9.80;1.00
12438;DHT22;6283;51.330;12.374;2023-04-01T03:06:08;10.20;1.00
12438;DHT22;6283;51.330;12.374;2023-04-01T03:08:34;10.00;99.90
12438;DHT22;6283;51.330;12.374;2023-04-01T03:11:00;9.80;99.90
12438;DHT22;6283;51.330;12.374;2023-04-01T03:13:26;9.80;99.90
12438;DHT22;6283;51.330;12.374;2023-04-01T03:15:51;9.80;99.90
12438;DHT22;6283;51.330;12.374;2023-04-01T03:18:17;10.10;20.30
12438;DHT22;6283;51.330;12.374;2023-04-01T03:20:43;9.90;1.00
12438;DHT22;6283;51.330;12.374;2023-04-01T03:23:08;9.90;44.20
12438;DHT22;6283;51.330;12.374;2023-04-01T03:25:34;10.10;1.00
12438;DHT22;6283;51.330;12.374;2023-04-01T03:28:00;10.10;47.50
12438;DHT22;6283;51.330;12.374;2023-04-01T03:30:26;10.00;51.70
12438;DHT22;6283;51.330;12.374;2023-04-01T03:32:52;10.00;99.90
12438;DHT22;6283;51.330;12.374;2023-04-01T03:35:18;10.00;1.00
12438;DHT22;6283;51.330;12.374;2023-04-01T03:37:43;9.90;63.30
12438;DHT22;6283;51.330;12.374;2023-04-01T03:40:10;9.90;99.90
12438;DHT22;6283;51.330;12.374;2023-04-01T03:42:36;9.90;99.90
12438;DHT22;6283;51.330;12.374;2023-04-01T03:45:03;10.00;99.90
12438;DHT22;6283;51.330;12.374;2023-04-01T03:47:29;9.80;99.90
12438;DHT22;6283;51.330;12.374;2023-04-01T03:49:54;10.00;48.40
12438;DHT22;6283;51.330;12.374;2023-04-01T03:52:20;9.70;80.80
12438;DHT22;6283;51.330;12.374;2023-04-01T03:54:46;9.90;99.90
12438;DHT22;6283;51.330;12.374;2023-04-01T03:57:11;9.90;99.90
12438;DHT22;6283;51.330;12.374;2023-04-01T03:59:37;9.80;99.90
12438;DHT22;6283;51.330;12.374;2023-04-01T04:02:03;9.90;99.90
12438;DHT22;6283;51.330;12.374;2023-04-01T04:04:28;9.90;99.90
12438;DHT22;6283;51.330;12.374;2023-04-01T04:06:55;10.10;99.90
12438;DHT22;6283;51.330;12.374;2023-04-01T04:09:22;9.80;99.90
12438;DHT22;6283;51.330;12.374;2023-04-01T04:11:48;10.00;99.90
12438;DHT22;6283;51.330;12.374;2023-04-01T04:14:14;9.90;99.90
12438;DHT22;6283;51.330;12.374;2023-04-01T04:16:39;9.80;99.90
12438;DHT22;6283;51.330;12.374;2023-04-01T04:19:05;9.90;99.90
12438;DHT22;6283;51.330;12.374;2023-04-01T04:21:31;9.90;1.00
12438;DHT22;6283;51.330;12.374;2023-04-01T04:23:57;9.60;99.90
12438;DHT22;6283;51.330;12.374;2023-04-01T04:26:23;9.80;1.00
12438;DHT22;6283;51.330;12.374;2023-04-01T04:28:49;9.70;99.90
12438;DHT22;6283;51.330;12.374;2023-04-01T04:31:22;9.80;1.00
12438;DHT22;6283;51.330;12.374;2023-04-01T04:33:48;9.80;1.00
12438;DHT22;6283;51.330;12.374;2023-04-01T04:36:14;9.60;1.00
12438;DHT22;6283;51.330;12.374;2023-04-01T04:38:40;9.80;1.00
12438;DHT22;6283;51.330;12.374;2023-04-01T04:41:10;9.90;1.00
12438;DHT22;6283;51.330;12.374;2023-04-01T04:43:38;9.90;17.60
12438;DHT22;6283;51.330;12.374;2023-04-01T04:46:08;9.60;11.20
12438;DHT22;6283;51.330;12.374;2023-04-01T04:48:35;9.60;99.90
12438;DHT22;6283;51.330;12.374;2023-04-01T04:51:01;9.70;81.40
12438;DHT22;6283;51.330;12.374;2023-04-01T04:53:27;9.80;66.40
12438;DHT22;6283;51.330;12.374;2023-04-01T04:55:53;9.80;99.90
12438;DHT22;6283;51.330;12.374;2023-04-01T04:58:19;9.60;20.30
12438;DHT22;6283;51.330;12.374;2023-04-01T05:00:45;9.60;39.50
12438;DHT22;6283;51.330;12.374;2023-04-01T05:03:11;9.80;99.90
12438;DHT22;6283;51.330;12.374;2023-04-01T05:05:37;9.80;99.90
12438;DHT22;6283;51.330;12.374;2023-04-01T05:08:03;9.90;1.00
12438;DHT22;6283;51.330;12.374;2023-04-01T05:10:29;9.90;1.00
12438;DHT22;6283;51.330;12.374;2023-04-01T05:12:55;9.90;1.00
12438;DHT22;6283;51.330;12.374;2023-04-01T05:15:21;9.70;1.00
12438;DHT22;6283;51.330;12.374;2023-04-01T05:17:47;9.80;1.00
12438;DHT22;6283;51.330;12.374;2023-04-01T05:20:13;10.00;1.00
12438;DHT22;6283;51.330;12.374;2023-04-01T05:22:39;9.80;1.00
12438;DHT22;6283;51.330;12.374;2023-04-01T05:25:05;9.90;1.00
12438;DHT22;6283;51.330;12.374;2023-04-01T05:27:31;10.10;1.00
12438;DHT22;6283;51.330;12.374;2023-04-01T05:29:57;9.80;1.00
12438;DHT22;6283;51.330;12.374;2023-04-01T05:32:23;10.10;99.90
12438;DHT22;6283;51.330;12.374;2023-04-01T05:34:52;10.30;1.00
12438;DHT22;6283;51.330;12.374;2023-04-01T05:37:18;10.00;99.90
12438;DHT22;6283;51.330;12.374;2023-04-01T05:39:44;10.20;99.90
12438;DHT22;6283;51.330;12.374;2023-04-01T05:42:09;10.20;99.90
12438;DHT22;6283;51.330;12.374;2023-04-01T05:44:35;10.10;99.90
12438;DHT22;6283;51.330;12.374;2023-04-01T05:47:02;10.00;1.00
12438;DHT22;6283;51.330;12.374;2023-04-01T05:49:27;10.10;1.00
12438;DHT22;6283;51.330;12.374;2023-04-01T05:51:53;10.10;1.00
12438;DHT22;6283;51.330;12.374;2023-04-01T05:54:19;10.10;1.00
12438;DHT22;6283;51.330;12.374;2023-04-01T05:56:45;10.10;1.00
12438;DHT22;6283;51.330;12.374;2023-04-01T05:59:11;10.20;1.00
12438;DHT22;6283;51.330;12.374;2023-04-01T06:01:38;10.20;1.00
12438;DHT22;6283;51.330;12.374;2023-04-01T06:04:03;10.20;1.00
12438;DHT22;6283;51.330;12.374;2023-04-01T06:06:30;10.30;99.90
12438;DHT22;6283;51.330;12.374;2023-04-01T06:09:00;10.20;99.90
12438;DHT22;6283;51.330;12.374;2023-04-01T06:20:01;10.20;99.90
12438;DHT22;6283;51.330;12.374;2023-04-01T06:22:46;10.50;99.90
12438;DHT22;6283;51.330;12.374;2023-04-01T06:36:38;10.60;1.00
12438;DHT22;6283;51.330;12.374;2023-04-01T06:44:51;10.70;1.00
12438;DHT22;6283;51.330;12.374;2023-04-01T06:57:52;10.70;99.90
12438;DHT22;6283;51.330;12.374;2023-04-01T07:00:40;10.90;99.90
12438;DHT22;6283;51.330;12.374;2023-04-01T07:03:21;10.70;99.90
12438;DHT22;6283;51.330;12.374;2023-04-01T07:05:48;11.10;99.90
12438;DHT22;6283;51.330;12.374;2023-04-01T07:08:20;11.00;99.90
12438;DHT22;6283;51.330;12.374;2023-04-01T07:10:58;10.80;99.90
12438;DHT22;6283;51.330;12.374;2023-04-01T07:13:31;10.80;99.90
12438;DHT22;6283;51.330;12.374;2023-04-01T07:21:25;11.30;2.30
12438;DHT22;6283;51.330;12.374;2023-04-01T07:23:54;11.40;1.00
12438;DHT22;6283;51.330;12.374;2023-04-01T07:26:22;11.30;1.00
12438;DHT22;6283;51.330;12.374;2023-04-01T07:28:50;11.20;1.00
12438;DHT22;6283;51.330;12.374;2023-04-01T07:36:44;11.20;1.00
12438;DHT22;6283;51.330;12.374;2023-04-01T07:39:21;11.10;1.00
12438;DHT22;6283;51.330;12.374;2023-04-01T07:50:26;11.40;1.00
12438;DHT22;6283;51.330;12.374;2023-04-01T07:58:34;11.70;1.00
12438;DHT22;6283;51.330;12.374;2023-04-01T08:01:39;11.80;1.00
12438;DHT22;6283;51.330;12.374;2023-04-01T08:07:20;11.80;1.00
12438;DHT22;6283;51.330;12.374;2023-04-01T08:17:53;11.90;1.00
12438;DHT22;6283;51.330;12.374;2023-04-01T08:20:32;11.60;1.00
12438;DHT22;6283;51.330;12.374;2023-04-01T08:31:48;12.00;1.00
12438;DHT22;6283;51.330;12.374;2023-04-01T08:34:20;12.00;1.00
12438;DHT22;6283;51.330;12.374;2023-04-01T08:36:58;12.10;1.00
12438;DHT22;6283;51.330;12.374;2023-04-01T08:39:30;12.20;1.00
12438;DHT22;6283;51.330;12.374;2023-04-01T08:56:18;12.50;1.00
12438;DHT22;6283;51.330;12.374;2023-04-01T09:13:05;12.70;1.00
12438;DHT22;6283;51.330;12.374;2023-04-01T09:15:58;12.60;1.00
12438;DHT22;6283;51.330;12.374;2023-04-01T09:21:56;12.70;1.00
12438;DHT22;6283;51.330;12.374;2023-04-01T09:27:45;12.70;1.00
12438;DHT22;6283;51.330;12.374;2023-04-01T09:36:43;13.10;1.40
12438;DHT22;6283;51.330;12.374;2023-04-01T09:39:24;13.10;99.90
12438;DHT22;6283;51.330;12.374;2023-04-01T09:42:03;13.00;99.90
12438;DHT22;6283;51.330;12.374;2023-04-01T09:50:13;12.90;99.90
12438;DHT22;6283;51.330;12.374;2023-04-01T09:58:12;12.90;99.90
12438;DHT22;6283;51.330;12.374;2023-04-01T10:01:04;12.80;99.90
12438;DHT22;6283;51.330;12.374;2023-04-01T10:50:24;13.40;99.90
12438;DHT22;6283;51.330;12.374;2023-04-01T11:15:53;13.50;99.90
12438;DHT22;6283;51.330;12.374;2023-04-01T11:27:03;13.50;99.90
12438;DHT22;6283;51.330;12.374;2023-04-01T11:29:53;13.50;99.90
12438;DHT22;6283;51.330;12.374;2023-04-01T11:49:00;14.00;99.90
12438;DHT22;6283;51.330;12.374;2023-04-01T12:06:08;13.30;99.90
12438;DHT22;6283;51.330;12.374;2023-04-01T12:14:43;13.00;99.90
12438;DHT22;6283;51.330;12.374;2023-04-01T12:18:10;12.50;99.90
12438;DHT22;6283;51.330;12.374;2023-04-01T12:26:43;12.30;99.90
12438;DHT22;6283;51.330;12.374;2023-04-01T12:29:18;12.50;99.90
12438;DHT22;6283;51.330;12.374;2023-04-01T12:35:10;12.30;99.90
12438;DHT22;6283;51.330;12.374;2023-04-01T12:38:04;12.20;99.90
12438;DHT22;6283;51.330;12.374;2023-04-01T12:40:46;12.30;99.90
12438;DHT22;6283;51.330;12.374;2023-04-01T12:55:07;12.60;99.90
12438;DHT22;6283;51.330;12.374;2023-04-01T13:11:51;12.70;99.90
12438;DHT22;6283;51.330;12.374;2023-04-01T13:17:36;12.70;99.90
12438;DHT22;6283;51.330;12.374;2023-04-01T13:28:30;12.60;99.90
12438;DHT22;6283;51.330;12.374;2023-04-01T13:37:22;12.90;99.90
12438;DHT22;6283;51.330;12.374;2023-04-01T14:08:08;12.30;99.90
12438;DHT22;6283;51.330;12.374;2023-04-01T14:13:34;12.30;99.90
12438;DHT22;6283;51.330;12.374;2023-04-01T14:21:43;12.70;99.90
12438;DHT22;6283;51.330;12.374;2023-04-01T14:32:44;12.90;99.90
12438;DHT22;6283;51.330;12.374;2023-04-01T14:51:46;13.10;99.90
12438;DHT22;6283;51.330;12.374;2023-04-01T14:54:13;13.10;99.90
12438;DHT22;6283;51.330;12.374;2023-04-01T14:56:44;13.10;99.90
12438;DHT22;6283;51.330;12.374;2023-04-01T14:59:26;13.20;99.90
12438;DHT22;6283;51.330;12.374;2023-04-01T15:02:29;13.00;99.90
12438;DHT22;6283;51.330;12.374;2023-04-01T15:05:39;13.10;99.90
12438;DHT22;6283;51.330;12.374;2023-04-01T15:08:17;13.20;99.90
12438;DHT22;6283;51.330;12.374;2023-04-01T15:10:58;13.10;99.90
12438;DHT22;6283;51.330;12.374;2023-04-01T15:18:56;13.20;99.90
12438;DHT22;6283;51.330;12.374;2023-04-01T15:24:06;13.50;99.90
12438;DHT22;6283;51.330;12.374;2023-04-01T15:26:58;13.30;99.90
12438;DHT22;6283;51.330;12.374;2023-04-01T15:35:21;13.30;99.90
12438;DHT22;6283;51.330;12.374;2023-04-01T15:40:31;13.20;1.00
12438;DHT22;6283;51.330;12.374;2023-04-01T15:46:04;13.30;1.00
12438;DHT22;6283;51.330;12.374;2023-04-01T16:02:26;13.10;1.00
12438;DHT22;6283;51.330;12.374;2023-04-01T16:04:58;13.10;1.00
12438;DHT22;6283;51.330;12.374;2023-04-01T16:13:00;13.20;1.00
12438;DHT22;6283;51.330;12.374;2023-04-01T16:26:52;12.90;1.00
12438;DHT22;6283;51.330;12.374;2023-04-01T16:32:28;12.80;1.00
12438;DHT22;6283;51.330;12.374;2023-04-01T16:46:38;12.60;1.00
12438;DHT22;6283;51.330;12.374;2023-04-01T16:49:23;12.80;1.00
12438;DHT22;6283;51.330;12.374;2023-04-01T16:59:37;12.40;1.00
12438;DHT22;6283;51.330;12.374;2023-04-01T17:02:10;12.40;1.00
12438;DHT22;6283;51.330;12.374;2023-04-01T17:04:44;12.30;1.00
12438;DHT22;6283;51.330;12.374;2023-04-01T17:07:19;12.40;1.00
12438;DHT22;6283;51.330;12.374;2023-04-01T17:10:02;12.30;1.00
12438;DHT22;6283;51.330;12.374;2023-04-01T17:15:27;12.30;1.00
12438;DHT22;6283;51.330;12.374;2023-04-01T17:18:00;12.40;1.00
12438;DHT22;6283;51.330;12.374;2023-04-01T17:23:23;12.30;1.00
12438;DHT22;6283;51.330;12.374;2023-04-01T17:45:08;12.10;1.00
12438;DHT22;6283;51.330;12.374;2023-04-01T17:47:43;12.00;1.00
12438;DHT22;6283;51.330;12.374;2023-04-01T17:53:39;12.00;1.00
12438;DHT22;6283;51.330;12.374;2023-04-01T17:56:37;11.90;1.00
12438;DHT22;6283;51.330;12.374;2023-04-01T18:20:58;11.80;1.00
12438;DHT22;6283;51.330;12.374;2023-04-01T18:24:00;11.60;1.00
12438;DHT22;6283;51.330;12.374;2023-04-01T18:26:33;11.50;1.00
12438;DHT22;6283;51.330;12.374;2023-04-01T18:31:46;11.50;1.00
12438;DHT22;6283;51.330;12.374;2023-04-01T18:39:57;11.30;1.00
12438;DHT22;6283;51.330;12.374;2023-04-01T18:42:43;11.50;1.00
12438;DHT22;6283;51.330;12.374;2023-04-01T18:45:40;11.50;1.00
12438;DHT22;6283;51.330;12.374;2023-04-01T18:50:58;11.50;1.00
12438;DHT22;6283;51.330;12.374;2023-04-01T18:56:35;11.30;1.00
12438;DHT22;6283;51.330;12.374;2023-04-01T18:59:20;11.20;1.00
12438;DHT22;6283;51.330;12.374;2023-04-01T19:02:07;11.30;1.00
12438;DHT22;6283;51.330;12.374;2023-04-01T19:04:37;11.10;1.00
12438;DHT22;6283;51.330;12.374;2023-04-01T19:09:49;11.30;1.00
12438;DHT22;6283;51.330;12.374;2023-04-01T19:21:16;11.30;1.00
12438;DHT22;6283;51.330;12.374;2023-04-01T19:26:35;11.10;1.00
12438;DHT22;6283;51.330;12.374;2023-04-01T19:32:12;11.10;99.90
12438;DHT22;6283;51.330;12.374;2023-04-01T19:37:32;11.10;99.90
12438;DHT22;6283;51.330;12.374;2023-04-01T19:53:52;10.80;1.00
12438;DHT22;6283;51.330;12.374;2023-04-01T19:56:23;10.90;1.00
12438;DHT22;6283;51.330;12.374;2023-04-01T19:59:20;10.70;1.00
12438;DHT22;6283;51.330;12.374;2023-04-01T20:01:58;10.70;1.00
12438;DHT22;6283;51.330;12.374;2023-04-01T20:07:23;10.60;1.00
12438;DHT22;6283;51.330;12.374;2023-04-01T20:10:10;10.50;1.00
12438;DHT22;6283;51.330;12.374;2023-04-01T20:18:02;10.30;1.00
12438;DHT22;6283;51.330;12.374;2023-04-01T20:20:30;10.50;1.00
12438;DHT22;6283;51.330;12.374;2023-04-01T20:23:24;10.50;1.00
12438;DHT22;6283;51.330;12.374;2023-04-01T20:25:57;10.40;1.00
12438;DHT22;6283;51.330;12.374;2023-04-01T20:28:30;10.40;1.00
12438;DHT22;6283;51.330;12.374;2023-04-01T20:47:44;9.90;1.00
12438;DHT22;6283;51.330;12.374;2023-04-01T20:50:48;9.80;1.00
12438;DHT22;6283;51.330;12.374;2023-04-01T21:02:04;9.50;1.00
12438;DHT22;6283;51.330;12.374;2023-04-01T21:05:00;9.30;1.00
12438;DHT22;6283;51.330;12.374;2023-04-01T21:07:49;9.50;1.00
12438;DHT22;6283;51.330;12.374;2023-04-01T21:16:10;9.40;1.00
12438;DHT22;6283;51.330;12.374;2023-04-01T21:18:50;9.20;1.00
12438;DHT22;6283;51.330;12.374;2023-04-01T21:40:34;9.10;1.00
12438;DHT22;6283;51.330;12.374;2023-04-01T21:54:39;8.80;1.00
12438;DHT22;6283;51.330;12.374;2023-04-01T22:00:20;8.70;1.00
12438;DHT22;6283;51.330;12.374;2023-04-01T22:05:09;8.60;1.00
12438;DHT22;6283;51.330;12.374;2023-04-01T22:07:49;8.30;1.00
12438;DHT22;6283;51.330;12.374;2023-04-01T22:13:07;8.40;1.00
12438;DHT22;6283;51.330;12.374;2023-04-01T22:16:16;8.30;1.00
12438;DHT22;6283;51.330;12.374;2023-04-01T22:32:40;7.90;1.00
12438;DHT22;6283;51.330;12.374;2023-04-01T22:38:09;7.70;1.00
12438;DHT22;6283;51.330;12.374;2023-04-01T22:41:08;8.00;1.00
12438;DHT22;6283;51.330;12.374;2023-04-01T22:43:40;7.70;1.00
12438;DHT22;6283;51.330;12.374;2023-04-01T22:46:46;7.80;1.00
12438;DHT22;6283;51.330;12.374;2023-04-01T22:51:52;7.50;1.00
12438;DHT22;6283;51.330;12.374;2023-04-01T23:03:00;7.40;1.00
12438;DHT22;6283;51.330;12.374;2023-04-01T23:05:28;7.50;1.00
12438;DHT22;6283;51.330;12.374;2023-04-01T23:11:15;7.40;1.00
12438;DHT22;6283;51.330;12.374;2023-04-01T23:13:50;7.40;1.00
12438;DHT22;6283;51.330;12.374;2023-04-01T23:16:27;7.10;1.00
12438;DHT22;6283;51.330;12.374;2023-04-01T23:21:44;7.40;1.00
12438;DHT22;6283;51.330;12.374;2023-04-01T23:24:29;7.10;1.00
12438;DHT22;6283;51.330;12.374;2023-04-01T23:27:20;7.10;1.00
12438;DHT22;6283;51.330;12.374;2023-04-01T23:29:48;7.20;1.00
12438;DHT22;6283;51.330;12.374;2023-04-01T23:32:18;7.10;1.00
12438;DHT22;6283;51.330;12.374;2023-04-01T23:34:50;7.20;1.00
12438;DHT22;6283;51.330;12.374;2023-04-01T23:37:17;7.20;1.00
12438;DHT22;6283;51.330;12.374;2023-04-01T23:39:57;7.00;1.00
12438;DHT22;6283;51.330;12.374;2023-04-01T23:42:29;7.10;1.00
12438;DHT22;6283;51.330;12.374;2023-04-01T23:44:58;6.80;1.00
12438;DHT22;6283;51.330;12.374;2023-04-01T23:47:27;6.90;1.00
12438;DHT22;6283;51.330;12.374;2023-04-01T23:49:58;7.00;1.00
12438;DHT22;6283;51.330;12.374;2023-04-01T23:52:27;6.80;1.00
12438;DHT22;6283;51.330;12.374;2023-04-01T23:54:58;6.90;1.00
12438;DHT22;6283;51.330;12.374;2023-04-01T23:57:31;6.70;1.00
